TimeCDT,TemperatureF,Dew PointF,Humidity,Sea Level PressureIn,VisibilityMPH,Wind Direction,Wind SpeedMPH,Gust SpeedMPH,PrecipitationIn,Events,Conditions,WindDirDegrees,DateUTC
12:15 AM,62.6,55.4,77,29.91,10.0,ESE,9.2,-,N/A,,Clear,120,2013-06-14 05:15:00
12:35 AM,62.6,53.6,72,29.91,10.0,ESE,10.4,-,N/A,,Clear,120,2013-06-14 05:35:00
12:55 AM,62.6,53.6,72,29.91,10.0,ESE,9.2,16.1,N/A,,Scattered Clouds,120,2013-06-14 05:55:00
1:15 AM,62.6,53.6,72,29.89,10.0,ESE,6.9,-,N/A,,Mostly Cloudy,110,2013-06-14 06:15:00
1:35 AM,60.8,53.6,77,29.89,10.0,ESE,6.9,-,N/A,,Partly Cloudy,110,2013-06-14 06:35:00
1:55 AM,59.0,53.6,82,29.89,10.0,ESE,4.6,-,N/A,,Clear,110,2013-06-14 06:55:00
2:15 AM,59.0,53.6,82,29.86,10.0,ESE,8.1,-,N/A,,Clear,110,2013-06-14 07:15:00
2:35 AM,59.0,53.6,82,29.86,10.0,ESE,8.1,-,N/A,,Clear,120,2013-06-14 07:35:00
2:55 AM,59.0,53.6,82,29.85,10.0,East,3.5,-,N/A,,Clear,90,2013-06-14 07:55:00
3:15 AM,57.2,53.6,88,29.85,10.0,ENE,3.5,-,N/A,,Partly Cloudy,70,2013-06-14 08:15:00
3:35 AM,55.4,53.6,94,29.84,10.0,ENE,4.6,-,N/A,,Partly Cloudy,70,2013-06-14 08:35:00
3:55 AM,57.2,53.6,88,29.82,10.0,East,8.1,-,N/A,,Clear,80,2013-06-14 08:55:00
4:15 AM,57.2,53.6,88,29.80,10.0,East,6.9,-,N/A,,Clear,90,2013-06-14 09:15:00
4:35 AM,59.0,53.6,82,29.78,10.0,ESE,9.2,-,N/A,,Clear,110,2013-06-14 09:35:00
4:55 AM,59.0,53.6,82,29.77,10.0,ESE,10.4,17.3,N/A,,Clear,120,2013-06-14 09:55:00
5:15 AM,59.0,53.6,82,29.75,10.0,ESE,12.7,18.4,N/A,,Partly Cloudy,120,2013-06-14 10:15:00
5:35 AM,59.0,53.6,82,29.76,10.0,SE,13.8,19.6,N/A,,Partly Cloudy,130,2013-06-14 10:35:00
5:55 AM,59.0,53.6,82,29.84,10.0,WNW,9.2,-,N/A,,Partly Cloudy,290,2013-06-14 10:55:00
6:15 AM,59.0,55.4,88,29.85,10.0,West,3.5,-,N/A,Rain-Thunderstorm,Light Thunderstorms and Rain,260,2013-06-14 11:15:00
6:35 AM,57.2,53.6,88,29.85,10.0,SSE,3.5,-,N/A,,Clear,150,2013-06-14 11:35:00
6:55 AM,57.2,55.4,94,29.84,10.0,SE,4.6,-,N/A,,Partly Cloudy,130,2013-06-14 11:55:00
7:15 AM,59.0,55.4,88,29.75,10.0,East,11.5,-,N/A,,Clear,100,2013-06-14 12:15:00
7:35 AM,59.0,55.4,88,29.84,10.0,WNW,19.6,31.1,N/A,,Partly Cloudy,290,2013-06-14 12:35:00
7:55 AM,60.8,55.4,82,29.81,10.0,WSW,5.8,-,N/A,Thunderstorm,Scattered Clouds,240,2013-06-14 12:55:00
8:15 AM,62.6,55.4,77,29.79,10.0,ESE,4.6,-,N/A,,Clear,110,2013-06-14 13:15:00
8:35 AM,62.6,55.4,77,29.79,10.0,SE,4.6,-,N/A,,Partly Cloudy,130,2013-06-14 13:35:00
8:55 AM,62.6,55.4,77,29.80,10.0,ESE,3.5,-,N/A,,Mostly Cloudy,120,2013-06-14 13:55:00
9:15 AM,62.6,57.2,82,29.81,10.0,West,5.8,-,N/A,,Overcast,260,2013-06-14 14:15:00
9:35 AM,64.4,57.2,77,29.80,10.0,West,4.6,-,N/A,,Scattered Clouds,270,2013-06-14 14:35:00
9:55 AM,64.4,57.2,77,29.79,10.0,South,4.6,-,N/A,,Mostly Cloudy,180,2013-06-14 14:55:00
10:15 AM,66.2,57.2,73,29.78,10.0,South,8.1,-,N/A,,Mostly Cloudy,190,2013-06-14 15:15:00
10:35 AM,66.2,57.2,73,29.77,10.0,South,11.5,-,N/A,,Mostly Cloudy,190,2013-06-14 15:35:00
10:55 AM,66.2,57.2,73,29.76,10.0,South,8.1,-,N/A,,Scattered Clouds,180,2013-06-14 15:55:00
11:15 AM,69.8,59.0,68,29.77,10.0,South,6.9,-,N/A,,Partly Cloudy,190,2013-06-14 16:15:00
11:35 AM,69.8,59.0,68,29.77,10.0,South,5.8,-,N/A,,Partly Cloudy,170,2013-06-14 16:35:00
11:55 AM,71.6,59.0,64,29.77,10.0,SSW,8.1,-,N/A,,Partly Cloudy,200,2013-06-14 16:55:00
12:15 PM,71.6,59.0,64,29.79,10.0,WSW,9.2,16.1,N/A,,Mostly Cloudy,250,2013-06-14 17:15:00
12:35 PM,71.6,59.0,64,29.79,10.0,WSW,12.7,-,N/A,,Overcast,250,2013-06-14 17:35:00
12:55 PM,71.6,59.0,64,29.80,10.0,SW,12.7,-,N/A,,Overcast,230,2013-06-14 17:55:00
1:15 PM,71.6,60.8,69,29.79,10.0,West,10.4,-,N/A,,Mostly Cloudy,270,2013-06-14 18:15:00
1:35 PM,73.4,60.8,65,29.79,10.0,SW,10.4,-,N/A,,Scattered Clouds,230,2013-06-14 18:35:00
1:55 PM,73.4,60.8,65,29.80,10.0,West,17.3,21.9,N/A,,Overcast,270,2013-06-14 18:55:00
2:15 PM,73.4,59.0,61,29.80,10.0,West,18.4,-,N/A,,Mostly Cloudy,270,2013-06-14 19:15:00
2:35 PM,75.2,59.0,57,29.80,10.0,West,17.3,26.5,N/A,,Scattered Clouds,260,2013-06-14 19:35:00
2:55 PM,75.2,57.2,53,29.80,10.0,West,15.0,21.9,N/A,,Partly Cloudy,280,2013-06-14 19:55:00
3:15 PM,75.2,57.2,53,29.81,10.0,West,16.1,20.7,N/A,,Scattered Clouds,270,2013-06-14 20:15:00
3:35 PM,75.2,57.2,53,29.81,10.0,West,17.3,21.9,N/A,,Partly Cloudy,280,2013-06-14 20:35:00
3:55 PM,75.2,55.4,50,29.81,10.0,West,15.0,23.0,N/A,,Clear,280,2013-06-14 20:55:00
4:15 PM,75.2,55.4,50,29.82,10.0,West,19.6,26.5,N/A,,Clear,280,2013-06-14 21:15:00
4:35 PM,75.2,55.4,50,29.82,10.0,West,12.7,26.5,N/A,,Clear,280,2013-06-14 21:35:00
4:55 PM,75.2,53.6,47,29.82,10.0,West,18.4,25.3,N/A,,Partly Cloudy,280,2013-06-14 21:55:00
5:15 PM,75.2,53.6,47,29.83,10.0,WNW,18.4,23.0,N/A,,Partly Cloudy,290,2013-06-14 22:15:00
5:35 PM,75.2,50.0,41,29.83,10.0,West,19.6,27.6,N/A,,Clear,280,2013-06-14 22:35:00
5:55 PM,75.2,50.0,41,29.84,10.0,WNW,18.4,26.5,N/A,,Clear,290,2013-06-14 22:55:00
6:15 PM,75.2,50.0,41,29.84,10.0,WNW,15.0,23.0,N/A,,Partly Cloudy,290,2013-06-14 23:15:00
6:35 PM,75.2,48.2,38,29.84,10.0,West,13.8,23.0,N/A,,Partly Cloudy,270,2013-06-14 23:35:00
6:55 PM,75.2,48.2,38,29.84,10.0,West,12.7,21.9,N/A,,Clear,280,2013-06-14 23:55:00
7:15 PM,75.2,48.2,38,29.84,10.0,West,16.1,23.0,N/A,,Partly Cloudy,280,2013-06-15 00:15:00
7:35 PM,73.4,50.0,44,29.85,10.0,West,17.3,-,N/A,,Clear,280,2013-06-15 00:35:00
7:55 PM,71.6,50.0,46,29.86,10.0,WNW,16.1,23.0,N/A,,Clear,290,2013-06-15 00:55:00
8:15 PM,71.6,48.2,43,29.86,10.0,West,18.4,23.0,N/A,,Clear,280,2013-06-15 01:15:00
8:35 PM,68.0,46.4,46,29.87,10.0,West,11.5,18.4,N/A,,Clear,280,2013-06-15 01:35:00
8:55 PM,68.0,42.8,40,29.88,10.0,West,12.7,-,N/A,,Clear,280,2013-06-15 01:55:00
9:15 PM,66.2,44.6,46,29.88,10.0,West,9.2,-,N/A,,Clear,270,2013-06-15 02:15:00
9:35 PM,64.4,46.4,52,29.89,10.0,WNW,12.7,17.3,N/A,,Clear,290,2013-06-15 02:35:00
9:55 PM,62.6,48.2,59,29.90,10.0,WNW,9.2,-,N/A,,Clear,290,2013-06-15 02:55:00
10:15 PM,59.0,48.2,67,29.91,10.0,WNW,6.9,-,N/A,,Clear,300,2013-06-15 03:15:00
10:35 PM,59.0,48.2,67,29.92,10.0,WNW,6.9,-,N/A,,Clear,290,2013-06-15 03:35:00
10:55 PM,57.2,48.2,72,29.93,10.0,WSW,4.6,-,N/A,,Clear,250,2013-06-15 03:55:00
11:15 PM,53.6,46.4,77,29.93,10.0,SSW,3.5,-,N/A,,Clear,210,2013-06-15 04:15:00
11:35 PM,51.8,46.4,82,29.93,10.0,South,4.6,-,N/A,,Clear,190,2013-06-15 04:35:00
11:55 PM,50.0,46.4,87,29.93,10.0,SSE,5.8,-,N/A,,Clear,150,2013-06-15 04:55:00